sensor_id;sensor_type;location;lat;lon;timestamp;pressure;altitude;pressure_sealevel;temperature;humidity
14902;BME280;7542;49.078;9.194;2023-04-27T00:00:24;98702.94;;;29.36;28.23
14902;BME280;7542;49.078;9.194;2023-04-27T00:01:26;98703.53;;;29.33;27.80
14902;BME280;7542;49.078;9.194;2023-04-27T00:02:29;98706.75;;;29.35;28.34
14902;BME280;7542;49.078;9.194;2023-04-27T00:03:31;98703.25;;;29.34;27.92
14902;BME280;7542;49.078;9.194;2023-04-27T00:04:33;98700.03;;;29.32;27.87
14902;BME280;7542;49.078;9.194;2023-04-27T00:05:37;98688.44;;;29.32;28.35
14902;BME280;7542;49.078;9.194;2023-04-27T00:06:41;98698.13;;;29.33;28.12
14902;BME280;7542;49.078;9.194;2023-04-27T00:07:44;98700.03;;;29.32;28.15
14902;BME280;7542;49.078;9.194;2023-04-27T00:08:46;98694.63;;;29.32;28.12
14902;BME280;7542;49.078;9.194;2023-04-27T00:09:48;98688.69;;;29.30;28.28
14902;BME280;7542;49.078;9.194;2023-04-27T00:10:52;98694.38;;;29.29;27.91
14902;BME280;7542;49.078;9.194;2023-04-27T00:11:54;98688.97;;;29.29;28.09
14902;BME280;7542;49.078;9.194;2023-04-27T00:12:57;98697.09;;;29.29;28.47
14902;BME280;7542;49.078;9.194;2023-04-27T00:14:00;98691.97;;;29.27;28.54
14902;BME280;7542;49.078;9.194;2023-04-27T00:15:02;98691.19;;;29.27;28.39
14902;BME280;7542;49.078;9.194;2023-04-27T00:16:05;98692.56;;;29.24;28.02
14902;BME280;7542;49.078;9.194;2023-04-27T00:17:09;98686.88;;;29.26;28.14
14902;BME280;7542;49.078;9.194;2023-04-27T00:18:11;98692.28;;;29.26;28.09
14902;BME280;7542;49.078;9.194;2023-04-27T00:19:13;98698.78;;;29.25;28.34
14902;BME280;7542;49.078;9.194;2023-04-27T00:20:17;98689.06;;;29.24;28.10
14902;BME280;7542;49.078;9.194;2023-04-27T00:21:19;98691.75;;;29.24;28.09
14902;BME280;7542;49.078;9.194;2023-04-27T00:22:21;98687.22;;;29.19;28.31
14902;BME280;7542;49.078;9.194;2023-04-27T00:23:23;98687.47;;;29.23;28.33
14902;BME280;7542;49.078;9.194;2023-04-27T00:24:25;98689.34;;;29.22;28.55
14902;BME280;7542;49.078;9.194;2023-04-27T00:25:27;98690.72;;;29.20;28.33
14902;BME280;7542;49.078;9.194;2023-04-27T00:26:29;98680.50;;;29.16;28.15
14902;BME280;7542;49.078;9.194;2023-04-27T00:27:31;98692.91;;;29.17;28.53
14902;BME280;7542;49.078;9.194;2023-04-27T00:28:33;98684.81;;;29.17;28.25
14902;BME280;7542;49.078;9.194;2023-04-27T00:29:35;98685.09;;;29.16;28.58
14902;BME280;7542;49.078;9.194;2023-04-27T00:30:37;98684.00;;;29.17;28.09
14902;BME280;7542;49.078;9.194;2023-04-27T00:31:39;98677.28;;;29.14;28.22
14902;BME280;7542;49.078;9.194;2023-04-27T00:32:41;98677.28;;;29.14;28.43
14902;BME280;7542;49.078;9.194;2023-04-27T00:33:43;98677.28;;;29.14;28.21
14902;BME280;7542;49.078;9.194;2023-04-27T00:34:45;98678.38;;;29.13;28.01
14902;BME280;7542;49.078;9.194;2023-04-27T00:35:47;98677.59;;;29.13;28.27
14902;BME280;7542;49.078;9.194;2023-04-27T00:36:49;98675.97;;;29.12;28.29
14902;BME280;7542;49.078;9.194;2023-04-27T00:37:53;98676.47;;;29.14;28.39
14902;BME280;7542;49.078;9.194;2023-04-27T00:38:55;98671.38;;;29.12;28.37
14902;BME280;7542;49.078;9.194;2023-04-27T00:39:58;98685.97;;;29.11;28.05
14902;BME280;7542;49.078;9.194;2023-04-27T00:41:06;98677.28;;;29.14;28.09
14902;BME280;7542;49.078;9.194;2023-04-27T00:42:08;98676.78;;;29.12;28.17
14902;BME280;7542;49.078;9.194;2023-04-27T00:43:16;98670.88;;;29.10;28.14
14902;BME280;7542;49.078;9.194;2023-04-27T00:44:25;98679.47;;;29.12;27.98
14902;BME280;7542;49.078;9.194;2023-04-27T00:45:27;98678.72;;;29.07;28.26
14902;BME280;7542;49.078;9.194;2023-04-27T00:46:29;98676.03;;;29.07;28.31
14902;BME280;7542;49.078;9.194;2023-04-27T00:47:33;98679.53;;;29.07;28.42
14902;BME280;7542;49.078;9.194;2023-04-27T00:48:36;98678.72;;;29.07;28.35
14902;BME280;7542;49.078;9.194;2023-04-27T00:49:39;98675.50;;;29.05;28.23
14902;BME280;7542;49.078;9.194;2023-04-27T00:50:41;98673.91;;;29.04;28.34
14902;BME280;7542;49.078;9.194;2023-04-27T00:51:43;98670.41;;;29.03;28.24
14902;BME280;7542;49.078;9.194;2023-04-27T00:52:45;98674.50;;;29.01;27.97
14902;BME280;7542;49.078;9.194;2023-04-27T00:53:51;98666.09;;;29.02;27.96
14902;BME280;7542;49.078;9.194;2023-04-27T00:54:56;98666.09;;;29.02;28.20
14902;BME280;7542;49.078;9.194;2023-04-27T00:55:58;98668.84;;;28.97;28.23
14902;BME280;7542;49.078;9.194;2023-04-27T00:57:02;98668.84;;;28.97;27.95
14902;BME280;7542;49.078;9.194;2023-04-27T00:58:04;98666.13;;;28.97;28.23
14902;BME280;7542;49.078;9.194;2023-04-27T00:59:08;98667.25;;;28.96;28.08
14902;BME280;7542;49.078;9.194;2023-04-27T01:00:12;98662.94;;;28.95;28.35
14902;BME280;7542;49.078;9.194;2023-04-27T01:01:14;98667.25;;;28.96;28.09
14902;BME280;7542;49.078;9.194;2023-04-27T01:02:18;98666.72;;;28.94;27.97
14902;BME280;7542;49.078;9.194;2023-04-27T01:03:22;98668.63;;;28.94;28.08
14902;BME280;7542;49.078;9.194;2023-04-27T01:04:25;98666.22;;;28.92;28.18
14902;BME280;7542;49.078;9.194;2023-04-27T01:05:28;98674.31;;;28.92;28.82
14902;BME280;7542;49.078;9.194;2023-04-27T01:06:33;98667.81;;;28.93;28.29
14902;BME280;7542;49.078;9.194;2023-04-27T01:07:41;98670.53;;;28.93;28.36
14902;BME280;7542;49.078;9.194;2023-04-27T01:08:43;98675.41;;;28.91;28.18
14902;BME280;7542;49.078;9.194;2023-04-27T01:09:45;98674.59;;;28.91;28.33
14902;BME280;7542;49.078;9.194;2023-04-27T01:10:47;98671.63;;;28.87;28.12
14902;BME280;7542;49.078;9.194;2023-04-27T01:11:50;98679.19;;;28.90;28.49
14902;BME280;7542;49.078;9.194;2023-04-27T01:12:52;98672.72;;;28.86;28.30
14902;BME280;7542;49.078;9.194;2023-04-27T01:13:54;98674.31;;;28.87;28.53
14902;BME280;7542;49.078;9.194;2023-04-27T01:14:58;98678.13;;;28.86;28.36
14902;BME280;7542;49.078;9.194;2023-04-27T01:16:00;98677.31;;;28.85;28.47
14902;BME280;7542;49.078;9.194;2023-04-27T01:17:02;98675.72;;;28.84;28.41
14902;BME280;7542;49.078;9.194;2023-04-27T01:18:05;98680.81;;;28.86;28.37
14902;BME280;7542;49.078;9.194;2023-04-27T01:19:08;98685.41;;;28.85;28.19
14902;BME280;7542;49.078;9.194;2023-04-27T01:20:12;98682.19;;;28.83;28.33
14902;BME280;7542;49.078;9.194;2023-04-27T01:21:14;98685.19;;;28.82;28.14
14902;BME280;7542;49.078;9.194;2023-04-27T01:22:17;98684.09;;;28.83;28.56
14902;BME280;7542;49.078;9.194;2023-04-27T01:23:19;98681.41;;;28.83;28.26
14902;BME280;7542;49.078;9.194;2023-04-27T01:24:21;98676.28;;;28.81;28.67
14902;BME280;7542;49.078;9.194;2023-04-27T01:25:24;98681.97;;;28.80;28.45
14902;BME280;7542;49.078;9.194;2023-04-27T01:26:26;98684.38;;;28.81;28.48
14902;BME280;7542;49.078;9.194;2023-04-27T01:27:28;98679.78;;;28.82;28.30
14902;BME280;7542;49.078;9.194;2023-04-27T01:28:31;98683.88;;;28.79;28.77
14902;BME280;7542;49.078;9.194;2023-04-27T01:29:33;98688.47;;;28.79;28.41
14902;BME280;7542;49.078;9.194;2023-04-27T01:30:35;98683.88;;;28.79;28.24
14902;BME280;7542;49.078;9.194;2023-04-27T01:31:37;98687.38;;;28.80;28.52
14902;BME280;7542;49.078;9.194;2023-04-27T01:32:40;98681.19;;;28.79;28.52
14902;BME280;7542;49.078;9.194;2023-04-27T01:33:42;98680.66;;;28.77;28.37
14902;BME280;7542;49.078;9.194;2023-04-27T01:34:44;98683.34;;;28.77;28.62
14902;BME280;7542;49.078;9.194;2023-04-27T01:35:47;98681.47;;;28.78;28.36
14902;BME280;7542;49.078;9.194;2023-04-27T01:36:49;98682.56;;;28.77;28.47
14902;BME280;7542;49.078;9.194;2023-04-27T01:37:53;98682.81;;;28.75;28.45
14902;BME280;7542;49.078;9.194;2023-04-27T01:38:56;98679.03;;;28.76;28.59
14902;BME280;7542;49.078;9.194;2023-04-27T01:39:58;98689.81;;;28.76;28.43
14902;BME280;7542;49.078;9.194;2023-04-27T01:41:03;98685.50;;;28.75;28.54
14902;BME280;7542;49.078;9.194;2023-04-27T01:42:06;98685.50;;;28.75;28.63
14902;BME280;7542;49.078;9.194;2023-04-27T01:43:08;98683.41;;;28.72;28.70
14902;BME280;7542;49.078;9.194;2023-04-27T01:44:09;98681.78;;;28.71;28.44
14902;BME280;7542;49.078;9.194;2023-04-27T01:45:12;98681.78;;;28.71;28.40
14902;BME280;7542;49.078;9.194;2023-04-27T01:46:15;98688.28;;;28.70;28.35
14902;BME280;7542;49.078;9.194;2023-04-27T01:47:17;98677.19;;;28.72;28.25
14902;BME280;7542;49.078;9.194;2023-04-27T01:48:20;98682.09;;;28.70;28.54
14902;BME280;7542;49.078;9.194;2023-04-27T01:49:22;98678.59;;;28.69;28.80
14902;BME280;7542;49.078;9.194;2023-04-27T01:50:25;98687.78;;;28.68;28.40
14902;BME280;7542;49.078;9.194;2023-04-27T01:51:27;98673.75;;;28.66;28.58
14902;BME280;7542;49.078;9.194;2023-04-27T01:52:28;98686.97;;;28.68;28.50
14902;BME280;7542;49.078;9.194;2023-04-27T01:53:31;98688.06;;;28.67;28.42
14902;BME280;7542;49.078;9.194;2023-04-27T01:54:33;98682.91;;;28.65;28.41
14902;BME280;7542;49.078;9.194;2023-04-27T01:55:35;98678.63;;;28.64;28.55
14902;BME280;7542;49.078;9.194;2023-04-27T01:56:37;98683.50;;;28.62;28.57
14902;BME280;7542;49.078;9.194;2023-04-27T01:57:39;98684.31;;;28.63;28.44
14902;BME280;7542;49.078;9.194;2023-04-27T01:58:41;98681.59;;;28.63;28.49
14902;BME280;7542;49.078;9.194;2023-04-27T01:59:43;98682.41;;;28.63;28.57
14902;BME280;7542;49.078;9.194;2023-04-27T02:00:44;98684.59;;;28.61;28.34
14902;BME280;7542;49.078;9.194;2023-04-27T02:01:46;98680.28;;;28.60;28.55
14902;BME280;7542;49.078;9.194;2023-04-27T02:02:50;98683.78;;;28.61;28.62
14902;BME280;7542;49.078;9.194;2023-04-27T02:03:55;98685.09;;;28.63;28.70
14902;BME280;7542;49.078;9.194;2023-04-27T02:04:59;98690.28;;;28.59;28.32
14902;BME280;7542;49.078;9.194;2023-04-27T02:06:01;98690.28;;;28.59;28.52
14902;BME280;7542;49.078;9.194;2023-04-27T02:07:04;98686.78;;;28.59;28.71
14902;BME280;7542;49.078;9.194;2023-04-27T02:08:06;98685.69;;;28.60;28.36
14902;BME280;7542;49.078;9.194;2023-04-27T02:09:08;98684.38;;;28.57;28.63
14902;BME280;7542;49.078;9.194;2023-04-27T02:10:10;98688.97;;;28.57;28.25
14902;BME280;7542;49.078;9.194;2023-04-27T02:11:12;98690.84;;;28.56;28.61
14902;BME280;7542;49.078;9.194;2023-04-27T02:12:14;98697.34;;;28.55;28.26
14902;BME280;7542;49.078;9.194;2023-04-27T02:13:17;98689.50;;;28.54;28.39
14902;BME280;7542;49.078;9.194;2023-04-27T02:14:19;98690.59;;;28.53;28.40
14902;BME280;7542;49.078;9.194;2023-04-27T02:15:21;98692.22;;;28.54;28.49
14902;BME280;7542;49.078;9.194;2023-04-27T02:16:25;98694.09;;;28.53;28.45
14902;BME280;7542;49.078;9.194;2023-04-27T02:17:27;98684.41;;;28.52;28.38
14902;BME280;7542;49.078;9.194;2023-04-27T02:18:30;98688.19;;;28.51;28.66
14902;BME280;7542;49.078;9.194;2023-04-27T02:19:36;98689.00;;;28.52;28.50
14902;BME280;7542;49.078;9.194;2023-04-27T02:20:39;98689.28;;;28.50;28.47
14902;BME280;7542;49.078;9.194;2023-04-27T02:21:42;98696.84;;;28.48;28.19
14902;BME280;7542;49.078;9.194;2023-04-27T02:22:44;98691.75;;;28.47;28.43
14902;BME280;7542;49.078;9.194;2023-04-27T02:23:46;98699.56;;;28.48;28.48
14902;BME280;7542;49.078;9.194;2023-04-27T02:24:48;98701.97;;;28.50;28.75
14902;BME280;7542;49.078;9.194;2023-04-27T02:25:50;98698.75;;;28.48;28.35
14902;BME280;7542;49.078;9.194;2023-04-27T02:26:52;98696.34;;;28.46;28.56
14902;BME280;7542;49.078;9.194;2023-04-27T02:27:55;98697.16;;;28.47;28.66
14902;BME280;7542;49.078;9.194;2023-04-27T02:28:57;98699.84;;;28.47;28.71
14902;BME280;7542;49.078;9.194;2023-04-27T02:30:07;98703.84;;;28.49;28.84
14902;BME280;7542;49.078;9.194;2023-04-27T02:31:10;98702.03;;;28.45;28.61
14902;BME280;7542;49.078;9.194;2023-04-27T02:32:14;98703.91;;;28.44;28.50
14902;BME280;7542;49.078;9.194;2023-04-27T02:33:17;98702.56;;;28.42;28.58
14902;BME280;7542;49.078;9.194;2023-04-27T02:34:19;98701.47;;;28.43;28.71
14902;BME280;7542;49.078;9.194;2023-04-27T02:35:21;98706.88;;;28.43;28.79
14902;BME280;7542;49.078;9.194;2023-04-27T02:36:23;98710.94;;;28.40;28.62
14902;BME280;7542;49.078;9.194;2023-04-27T02:37:25;98703.66;;;28.41;28.58
14902;BME280;7542;49.078;9.194;2023-04-27T02:38:29;98708.25;;;28.40;28.80
14902;BME280;7542;49.078;9.194;2023-04-27T02:39:31;98697.47;;;28.40;28.54
14902;BME280;7542;49.078;9.194;2023-04-27T02:40:33;98699.34;;;28.40;28.59
14902;BME280;7542;49.078;9.194;2023-04-27T02:41:35;98708.53;;;28.39;28.79
14902;BME280;7542;49.078;9.194;2023-04-27T02:42:37;98699.34;;;28.40;28.60
14902;BME280;7542;49.078;9.194;2023-04-27T02:43:39;98708.03;;;28.37;28.67
14902;BME280;7542;49.078;9.194;2023-04-27T02:44:42;98704.22;;;28.38;28.62
14902;BME280;7542;49.078;9.194;2023-04-27T02:45:44;98703.44;;;28.37;28.47
14902;BME280;7542;49.078;9.194;2023-04-27T02:46:46;98704.53;;;28.36;28.58
14902;BME280;7542;49.078;9.194;2023-04-27T02:47:48;98700.72;;;28.37;28.62
14902;BME280;7542;49.078;9.194;2023-04-27T02:48:53;98704.00;;;28.34;28.66
14902;BME280;7542;49.078;9.194;2023-04-27T02:49:55;98703.19;;;28.34;28.78
14902;BME280;7542;49.078;9.194;2023-04-27T02:50:58;98703.19;;;28.34;28.84
14902;BME280;7542;49.078;9.194;2023-04-27T02:52:00;98701.31;;;28.34;28.32
14902;BME280;7542;49.078;9.194;2023-04-27T02:53:02;98709.66;;;28.33;28.74
14902;BME280;7542;49.078;9.194;2023-04-27T02:54:04;98706.97;;;28.33;28.65
14902;BME280;7542;49.078;9.194;2023-04-27T02:55:07;98705.34;;;28.32;28.97
14902;BME280;7542;49.078;9.194;2023-04-27T02:56:11;98709.94;;;28.31;28.64
14902;BME280;7542;49.078;9.194;2023-04-27T02:57:14;98706.16;;;28.32;28.69
14902;BME280;7542;49.078;9.194;2023-04-27T02:58:16;98704.84;;;28.29;28.87
14902;BME280;7542;49.078;9.194;2023-04-27T02:59:18;98712.91;;;28.29;28.80
14902;BME280;7542;49.078;9.194;2023-04-27T03:00:20;98706.72;;;28.29;28.67
14902;BME280;7542;49.078;9.194;2023-04-27T03:01:22;98713.72;;;28.30;28.70
14902;BME280;7542;49.078;9.194;2023-04-27T03:02:24;98716.72;;;28.28;28.75
14902;BME280;7542;49.078;9.194;2023-04-27T03:03:27;98714.28;;;28.27;28.79
14902;BME280;7542;49.078;9.194;2023-04-27T03:04:29;98719.94;;;28.30;28.82
14902;BME280;7542;49.078;9.194;2023-04-27T03:05:32;98720.22;;;28.29;28.99
14902;BME280;7542;49.078;9.194;2023-04-27T03:06:34;98721.31;;;28.28;29.11
14902;BME280;7542;49.078;9.194;2023-04-27T03:07:36;98714.28;;;28.27;28.88
14902;BME280;7542;49.078;9.194;2023-04-27T03:08:39;98712.41;;;28.27;28.79
14902;BME280;7542;49.078;9.194;2023-04-27T03:09:41;98709.97;;;28.26;29.06
14902;BME280;7542;49.078;9.194;2023-04-27T03:10:42;98712.66;;;28.26;29.12
14902;BME280;7542;49.078;9.194;2023-04-27T03:11:45;98713.47;;;28.26;28.93
14902;BME280;7542;49.078;9.194;2023-04-27T03:12:47;98707.28;;;28.26;29.05
14902;BME280;7542;49.078;9.194;2023-04-27T03:13:49;98714.56;;;28.25;28.83
14902;BME280;7542;49.078;9.194;2023-04-27T03:14:51;98714.56;;;28.25;28.94
14902;BME280;7542;49.078;9.194;2023-04-27T03:15:53;98717.25;;;28.25;29.05
14902;BME280;7542;49.078;9.194;2023-04-27T03:16:56;98705.38;;;28.26;29.05
14902;BME280;7542;49.078;9.194;2023-04-27T03:17:58;98705.66;;;28.25;29.09
14902;BME280;7542;49.078;9.194;2023-04-27T03:19:00;98707.56;;;28.24;29.05
14902;BME280;7542;49.078;9.194;2023-04-27T03:20:03;98705.94;;;28.23;29.20
14902;BME280;7542;49.078;9.194;2023-04-27T03:21:11;98718.06;;;28.26;29.10
14902;BME280;7542;49.078;9.194;2023-04-27T03:22:14;98709.16;;;28.25;28.92
14902;BME280;7542;49.078;9.194;2023-04-27T03:23:16;98714.28;;;28.22;29.08
14902;BME280;7542;49.078;9.194;2023-04-27T03:24:17;98713.22;;;28.23;29.13
14902;BME280;7542;49.078;9.194;2023-04-27T03:25:19;98722.38;;;28.22;28.92
14902;BME280;7542;49.078;9.194;2023-04-27T03:26:22;98713.78;;;28.20;28.99
14902;BME280;7542;49.078;9.194;2023-04-27T03:27:24;98715.38;;;28.21;28.91
14902;BME280;7542;49.078;9.194;2023-04-27T03:28:26;98718.88;;;28.21;29.08
14902;BME280;7542;49.078;9.194;2023-04-27T03:29:28;98710.00;;;28.21;29.18
14902;BME280;7542;49.078;9.194;2023-04-27T03:30:30;98710.28;;;28.19;29.00
14902;BME280;7542;49.078;9.194;2023-04-27T03:31:32;98709.19;;;28.20;29.02
14902;BME280;7542;49.078;9.194;2023-04-27T03:32:34;98708.66;;;28.18;29.02
14902;BME280;7542;49.078;9.194;2023-04-27T03:33:37;98709.47;;;28.19;29.07
14902;BME280;7542;49.078;9.194;2023-04-27T03:34:39;98705.69;;;28.20;29.02
14902;BME280;7542;49.078;9.194;2023-04-27T03:35:41;98709.19;;;28.20;29.11
14902;BME280;7542;49.078;9.194;2023-04-27T03:36:43;98711.38;;;28.18;29.08
14902;BME280;7542;49.078;9.194;2023-04-27T03:37:45;98711.66;;;28.17;29.19
14902;BME280;7542;49.078;9.194;2023-04-27T03:38:47;98706.25;;;28.17;29.22
14902;BME280;7542;49.078;9.194;2023-04-27T03:39:49;98706.53;;;28.15;29.12
14902;BME280;7542;49.078;9.194;2023-04-27T03:40:52;98707.06;;;28.17;29.16
14902;BME280;7542;49.078;9.194;2023-04-27T03:41:55;98709.25;;;28.15;28.99
14902;BME280;7542;49.078;9.194;2023-04-27T03:42:58;98707.34;;;28.16;29.12
14902;BME280;7542;49.078;9.194;2023-04-27T03:44:00;98700.88;;;28.17;29.33
14902;BME280;7542;49.078;9.194;2023-04-27T03:45:03;98703.84;;;28.15;29.29
14902;BME280;7542;49.078;9.194;2023-04-27T03:46:07;98707.34;;;28.16;28.96
14902;BME280;7542;49.078;9.194;2023-04-27T03:47:09;98710.03;;;28.16;28.83
14902;BME280;7542;49.078;9.194;2023-04-27T03:48:13;98710.31;;;28.14;29.18
14902;BME280;7542;49.078;9.194;2023-04-27T03:49:15;98712.22;;;28.14;29.04
14902;BME280;7542;49.078;9.194;2023-04-27T03:50:17;98712.22;;;28.14;28.98
14902;BME280;7542;49.078;9.194;2023-04-27T03:51:20;98719.22;;;28.15;28.86
14902;BME280;7542;49.078;9.194;2023-04-27T03:52:22;98713.03;;;28.14;29.04
14902;BME280;7542;49.078;9.194;2023-04-27T03:53:25;98716.81;;;28.13;29.14
14902;BME280;7542;49.078;9.194;2023-04-27T03:54:27;98717.91;;;28.12;29.10
14902;BME280;7542;49.078;9.194;2023-04-27T03:55:29;98715.19;;;28.12;29.11
14902;BME280;7542;49.078;9.194;2023-04-27T03:56:32;98724.63;;;28.10;29.09
14902;BME280;7542;49.078;9.194;2023-04-27T03:57:34;98718.44;;;28.09;29.19
14902;BME280;7542;49.078;9.194;2023-04-27T03:58:36;98718.16;;;28.11;29.15
14902;BME280;7542;49.078;9.194;2023-04-27T03:59:38;98721.41;;;28.08;29.32
14902;BME280;7542;49.078;9.194;2023-04-27T04:00:43;98717.63;;;28.09;29.05
14902;BME280;7542;49.078;9.194;2023-04-27T04:01:46;98716.84;;;28.08;28.96
14902;BME280;7542;49.078;9.194;2023-04-27T04:02:48;98704.72;;;28.06;28.92
14902;BME280;7542;49.078;9.194;2023-04-27T04:03:50;98705.53;;;28.06;29.26
14902;BME280;7542;49.078;9.194;2023-04-27T04:04:52;98709.03;;;28.07;29.04
14902;BME280;7542;49.078;9.194;2023-04-27T04:05:55;98713.09;;;28.04;29.05
14902;BME280;7542;49.078;9.194;2023-04-27T04:06:57;98714.72;;;28.05;29.06
14902;BME280;7542;49.078;9.194;2023-04-27T04:08:02;98717.69;;;28.04;28.93
14902;BME280;7542;49.078;9.194;2023-04-27T04:09:04;98722.00;;;28.05;28.81
14902;BME280;7542;49.078;9.194;2023-04-27T04:10:07;98721.19;;;28.04;29.12
14902;BME280;7542;49.078;9.194;2023-04-27T04:11:10;98717.97;;;28.02;29.01
14902;BME280;7542;49.078;9.194;2023-04-27T04:12:12;98724.97;;;28.03;28.94
14902;BME280;7542;49.078;9.194;2023-04-27T04:13:13;98720.38;;;28.04;29.05
14902;BME280;7542;49.078;9.194;2023-04-27T04:14:16;98722.28;;;28.03;29.10
14902;BME280;7542;49.078;9.194;2023-04-27T04:15:18;98726.06;;;28.02;29.08
14902;BME280;7542;49.078;9.194;2023-04-27T04:16:21;98724.97;;;28.03;28.94
14902;BME280;7542;49.078;9.194;2023-04-27T04:17:23;98722.00;;;28.05;29.01
14902;BME280;7542;49.078;9.194;2023-04-27T04:18:25;98723.59;;;28.06;29.10
14902;BME280;7542;49.078;9.194;2023-04-27T04:19:27;98732.78;;;28.05;29.00
14902;BME280;7542;49.078;9.194;2023-04-27T04:20:30;98728.19;;;28.05;28.89
14902;BME280;7542;49.078;9.194;2023-04-27T04:21:32;98725.47;;;28.05;29.04
14902;BME280;7542;49.078;9.194;2023-04-27T04:22:33;98721.47;;;28.02;28.92
14902;BME280;7542;49.078;9.194;2023-04-27T04:23:36;98722.00;;;28.05;28.89
14902;BME280;7542;49.078;9.194;2023-04-27T04:24:38;98718.50;;;28.04;28.92
14902;BME280;7542;49.078;9.194;2023-04-27T04:25:41;98723.88;;;28.04;28.94
14902;BME280;7542;49.078;9.194;2023-04-27T04:26:43;98726.28;;;28.06;29.05
14902;BME280;7542;49.078;9.194;2023-04-27T04:27:45;98716.59;;;28.05;28.93
14902;BME280;7542;49.078;9.194;2023-04-27T04:28:50;98728.97;;;28.06;28.96
14902;BME280;7542;49.078;9.194;2023-04-27T04:29:53;98728.69;;;28.07;28.79
14902;BME280;7542;49.078;9.194;2023-04-27T04:30:56;98726.81;;;28.08;29.13
14902;BME280;7542;49.078;9.194;2023-04-27T04:31:58;98728.19;;;28.05;28.80
14902;BME280;7542;49.078;9.194;2023-04-27T04:33:00;98730.59;;;28.07;28.88
14902;BME280;7542;49.078;9.194;2023-04-27T04:34:02;98735.97;;;28.07;28.98
14902;BME280;7542;49.078;9.194;2023-04-27T04:35:05;98728.41;;;28.09;28.77
14902;BME280;7542;49.078;9.194;2023-04-27T04:36:07;98730.03;;;28.10;28.93
14902;BME280;7542;49.078;9.194;2023-04-27T04:37:09;98732.19;;;28.08;28.75
14902;BME280;7542;49.078;9.194;2023-04-27T04:38:14;98720.63;;;28.07;28.71
14902;BME280;7542;49.078;9.194;2023-04-27T04:39:19;98721.66;;;28.11;28.88
14902;BME280;7542;49.078;9.194;2023-04-27T04:40:21;98721.13;;;28.09;28.79
14902;BME280;7542;49.078;9.194;2023-04-27T04:41:23;98724.91;;;28.08;28.75
14902;BME280;7542;49.078;9.194;2023-04-27T04:42:25;98720.31;;;28.09;28.71
14902;BME280;7542;49.078;9.194;2023-04-27T04:43:28;98731.13;;;28.09;28.94
14902;BME280;7542;49.078;9.194;2023-04-27T04:44:30;98726.00;;;28.07;28.88
14902;BME280;7542;49.078;9.194;2023-04-27T04:45:32;98727.63;;;28.08;28.80
14902;BME280;7542;49.078;9.194;2023-04-27T04:46:34;98735.69;;;28.08;28.86
14902;BME280;7542;49.078;9.194;2023-04-27T04:47:38;98730.31;;;28.08;28.76
14902;BME280;7542;49.078;9.194;2023-04-27T04:48:40;98729.78;;;28.06;28.80
14902;BME280;7542;49.078;9.194;2023-04-27T04:49:42;98734.91;;;28.08;28.87
14902;BME280;7542;49.078;9.194;2023-04-27T04:50:44;98729.50;;;28.08;29.09
14902;BME280;7542;49.078;9.194;2023-04-27T04:51:46;98731.41;;;28.07;28.68
14902;BME280;7542;49.078;9.194;2023-04-27T04:52:48;98730.06;;;28.05;28.75
14902;BME280;7542;49.078;9.194;2023-04-27T04:53:50;98728.97;;;28.06;28.99
14902;BME280;7542;49.078;9.194;2023-04-27T04:54:52;98742.19;;;28.07;28.89
14902;BME280;7542;49.078;9.194;2023-04-27T04:55:54;98732.47;;;28.06;28.81
14902;BME280;7542;49.078;9.194;2023-04-27T04:56:57;98738.97;;;28.05;28.90
14902;BME280;7542;49.078;9.194;2023-04-27T04:57:59;98738.16;;;28.05;28.83
14902;BME280;7542;49.078;9.194;2023-04-27T04:59:02;98731.97;;;28.04;28.89
14902;BME280;7542;49.078;9.194;2023-04-27T05:00:05;98734.94;;;28.02;28.81
14902;BME280;7542;49.078;9.194;2023-04-27T05:01:14;98731.97;;;28.04;28.66
14902;BME280;7542;49.078;9.194;2023-04-27T05:02:16;98734.13;;;28.02;28.94
14902;BME280;7542;49.078;9.194;2023-04-27T05:03:18;98741.94;;;28.04;28.92
14902;BME280;7542;49.078;9.194;2023-04-27T05:04:21;98734.44;;;28.00;28.67
14902;BME280;7542;49.078;9.194;2023-04-27T05:05:23;98740.34;;;28.02;28.69
14902;BME280;7542;49.078;9.194;2023-04-27T05:06:25;98744.94;;;28.02;28.84
14902;BME280;7542;49.078;9.194;2023-04-27T05:07:27;98743.03;;;28.02;28.96
14902;BME280;7542;49.078;9.194;2023-04-27T05:08:29;98737.13;;;28.00;28.79
14902;BME280;7542;49.078;9.194;2023-04-27T05:09:31;98738.19;;;27.99;28.92
14902;BME280;7542;49.078;9.194;2023-04-27T05:10:33;98729.28;;;27.99;28.75
14902;BME280;7542;49.078;9.194;2023-04-27T05:11:35;98733.88;;;27.98;28.85
14902;BME280;7542;49.078;9.194;2023-04-27T05:12:37;98735.75;;;27.98;28.84
14902;BME280;7542;49.078;9.194;2023-04-27T05:13:39;98733.06;;;27.98;28.95
14902;BME280;7542;49.078;9.194;2023-04-27T05:14:41;98731.75;;;27.95;28.80
14902;BME280;7542;49.078;9.194;2023-04-27T05:15:44;98733.06;;;27.98;28.91
14902;BME280;7542;49.078;9.194;2023-04-27T05:16:46;98727.97;;;27.96;28.78
14902;BME280;7542;49.078;9.194;2023-04-27T05:17:49;98739.03;;;27.95;28.82
14902;BME280;7542;49.078;9.194;2023-04-27T05:18:51;98737.41;;;27.94;28.93
14902;BME280;7542;49.078;9.194;2023-04-27T05:19:55;98736.63;;;27.93;28.93
14902;BME280;7542;49.078;9.194;2023-04-27T05:20:58;98730.13;;;27.94;28.86
14902;BME280;7542;49.078;9.194;2023-04-27T05:22:01;98730.44;;;27.93;28.86
14902;BME280;7542;49.078;9.194;2023-04-27T05:23:04;98737.72;;;27.92;28.90
14902;BME280;7542;49.078;9.194;2023-04-27T05:24:07;98735.28;;;27.91;28.78
14902;BME280;7542;49.078;9.194;2023-04-27T05:25:09;98746.59;;;27.93;28.90
14902;BME280;7542;49.078;9.194;2023-04-27T05:26:16;98736.34;;;27.95;28.92
14902;BME280;7542;49.078;9.194;2023-04-27T05:27:19;98735.00;;;27.92;28.83
14902;BME280;7542;49.078;9.194;2023-04-27T05:28:21;98739.59;;;27.92;28.96
14902;BME280;7542;49.078;9.194;2023-04-27T05:29:23;98747.97;;;27.90;28.77
14902;BME280;7542;49.078;9.194;2023-04-27T05:30:25;98745.53;;;27.89;29.22
14902;BME280;7542;49.078;9.194;2023-04-27T05:31:27;98739.31;;;27.88;28.84
14902;BME280;7542;49.078;9.194;2023-04-27T05:32:29;98745.00;;;27.87;28.82
14902;BME280;7542;49.078;9.194;2023-04-27T05:33:32;98743.09;;;27.87;28.83
14902;BME280;7542;49.078;9.194;2023-04-27T05:34:34;98742.59;;;27.85;28.94
14902;BME280;7542;49.078;9.194;2023-04-27T05:35:37;98742.31;;;27.87;28.99